Time;durP1;ratioP1;P1;durP2;ratioP2;P2;SDS_P1;SDS_P2;PMS_P1;PMS_P2;Temp;Humidity;BMP_temperature;BMP_pressure;BME280_temperature;BME280_humidity;BME280_pressure;Samples;Min_cycle;Max_cycle;Signal;HPM_P1;HPM_P2
2022/01/02 00:02:02;;;;;;;;;23.75;21.00;;;;;12.59;64.58;101548.16;5039768;28;45456;-48
2022/01/02 00:04:30;;;;;;;;;18.75;17.50;;;;;12.57;64.44;101547.28;5039720;28;45460;-50
2022/01/02 00:07:02;;;;;;;;;19.00;18.00;;;;;12.58;64.69;101543.75;5039736;28;45295;-47
2022/01/02 00:09:37;;;;;;;;;19.25;18.25;;;;;12.59;64.27;101542.88;5039424;28;45174;-46
2022/01/02 00:12:12;;;;;;;;;20.00;18.75;;;;;12.61;64.37;101529.66;5041798;28;45242;-46
2022/01/02 00:14:42;;;;;;;;;12.25;10.00;;;;;12.62;64.61;101531.41;5046212;28;45250;-45
2022/01/02 00:17:09;;;;;;;;;25.75;20.00;;;;;12.62;64.63;101526.16;5028490;28;45309;-47
2022/01/02 00:19:37;;;;;;;;;22.25;21.00;;;;;12.64;64.40;101513.78;5028254;28;45362;-46
2022/01/02 00:22:06;;;;;;;;;17.75;17.50;;;;;12.62;64.21;101515.59;5046079;28;45226;-46
2022/01/02 00:24:32;;;;;;;;;20.75;17.75;;;;;12.64;64.18;101519.97;5048276;28;45441;-46
2022/01/02 00:26:59;;;;;;;;;17.00;16.00;;;;;12.64;64.52;101514.69;5053318;28;45846;-48
2022/01/02 00:29:25;;;;;;;;;22.00;20.00;;;;;12.64;64.19;101517.31;5028049;28;45909;-49
2022/01/02 00:31:53;;;;;;;;;19.50;19.50;;;;;12.62;64.52;101511.19;5042087;28;47744;-45
2022/01/02 00:34:19;;;;;;;;;19.50;19.50;;;;;12.63;64.53;101514.72;5066252;28;45241;-45
2022/01/02 00:36:44;;;;;;;;;18.75;17.75;;;;;12.63;64.78;101517.34;5065172;28;45216;-46
2022/01/02 00:39:10;;;;;;;;;20.00;18.25;;;;;12.62;64.36;101523.50;5028099;28;45503;-47
2022/01/02 00:42:05;;;;;;;;;21.50;20.50;;;;;12.63;64.63;101515.56;5045660;28;45156;-48
2022/01/02 00:44:36;;;;;;;;;21.75;19.00;;;;;12.61;64.51;101517.34;5032813;28;45462;-49
2022/01/02 00:47:05;;;;;;;;;20.00;18.00;;;;;12.63;64.27;101541.09;5046010;28;45233;-48
2022/01/02 00:49:38;;;;;;;;;20.50;17.25;;;;;12.64;64.34;101548.06;5045770;28;45714;-46
2022/01/02 00:52:08;;;;;;;;;19.25;19.25;;;;;12.64;64.49;101546.34;5052898;28;46246;-48
2022/01/02 00:54:39;;;;;;;;;16.50;15.50;;;;;12.64;64.52;101542.81;5065847;28;45383;-47
2022/01/02 00:57:08;;;;;;;;;22.25;20.00;;;;;12.65;64.11;101536.66;5066146;28;45577;-46
2022/01/02 01:00:01;;;;;;;;;20.50;20.00;;;;;12.65;64.59;101539.28;5047573;28;45364;-46
2022/01/02 01:02:33;;;;;;;;;24.75;20.25;;;;;12.60;64.38;101526.16;5065930;28;46129;-50
2022/01/02 01:05:02;;;;;;;;;18.25;18.25;;;;;12.59;64.39;101511.22;5065441;28;45207;-49
2022/01/02 01:07:28;;;;;;;;;20.25;19.25;;;;;12.57;64.33;101501.59;5066024;28;45328;-50
2022/01/02 01:09:57;;;;;;;;;19.75;19.75;;;;;12.55;64.39;101506.00;5065668;28;45602;-47
2022/01/02 01:12:23;;;;;;;;;20.00;19.50;;;;;12.53;64.54;101500.75;5065468;28;46213;-47
2022/01/02 01:14:50;;;;;;;;;20.50;17.25;;;;;12.54;64.33;101509.50;5065821;28;45239;-49
2022/01/02 01:17:16;;;;;;;;;28.00;24.00;;;;;12.55;64.48;101506.00;5065749;28;45302;-50
2022/01/02 01:19:42;;;;;;;;;27.00;24.75;;;;;12.54;64.35;101502.50;5065696;28;45257;-49
2022/01/02 01:22:08;;;;;;;;;23.00;22.25;;;;;12.52;64.41;101491.09;5065662;28;45638;-48
2022/01/02 01:24:35;;;;;;;;;22.50;19.75;;;;;12.51;64.67;101482.31;5062142;28;45418;-48
2022/01/02 01:27:04;;;;;;;;;26.25;21.75;;;;;12.46;64.52;101465.66;5062055;28;45291;-49
2022/01/02 01:29:34;;;;;;;;;22.50;20.75;;;;;12.47;64.67;101456.00;5042891;28;45257;-47
2022/01/02 01:32:00;;;;;;;;;19.75;17.75;;;;;12.48;64.34;101445.44;5057471;28;46167;-48
2022/01/02 01:34:25;;;;;;;;;20.00;18.25;;;;;12.48;64.30;101439.28;5062602;28;45245;-49
2022/01/02 01:36:51;;;;;;;;;19.75;18.25;;;;;12.46;64.42;101444.56;5060491;28;45502;-45
2022/01/02 01:39:16;;;;;;;;;22.25;19.00;;;;;12.47;64.24;101451.56;5041942;28;45235;-47
2022/01/02 01:41:42;;;;;;;;;21.75;20.25;;;;;12.46;64.28;101456.88;5041523;28;45400;-46
2022/01/02 01:46:37;;;;;;;;;26.00;19.75;;;;;12.45;64.49;101445.47;5042061;28;45289;-48
2022/01/02 01:49:20;;;;;;;;;21.50;21.00;;;;;12.43;64.43;101444.59;5041812;28;45321;-47
2022/01/02 01:51:47;;;;;;;;;25.25;22.50;;;;;12.42;64.56;101461.31;5041781;28;45254;-48
2022/01/02 01:54:14;;;;;;;;;29.00;24.25;;;;;12.42;64.56;101471.00;5041665;28;45460;-49
2022/01/02 01:56:40;;;;;;;;;30.50;26.00;;;;;12.43;64.56;101472.75;5041558;28;45305;-46
2022/01/02 01:59:06;;;;;;;;;34.50;28.25;;;;;12.44;64.47;101471.81;5041714;28;45514;-48
2022/01/02 02:01:32;;;;;;;;;49.00;38.75;;;;;12.42;64.66;101463.94;5023593;28;47675;-49
2022/01/02 02:03:58;;;;;;;;;49.50;40.25;;;;;12.44;64.51;101459.53;5041702;28;45211;-48
2022/01/02 02:06:24;;;;;;;;;53.00;43.00;;;;;12.40;64.47;101449.03;5041710;28;45289;-49
2022/01/02 02:08:53;;;;;;;;;54.75;42.75;;;;;12.43;64.28;101457.78;5023641;28;45503;-45
2022/01/02 02:11:20;;;;;;;;;55.50;44.25;;;;;12.43;64.44;101455.16;5041084;28;46302;-45
2022/01/02 02:13:47;;;;;;;;;49.75;40.25;;;;;12.43;64.53;101449.00;5041596;28;45282;-48
2022/01/02 02:16:12;;;;;;;;;48.75;39.00;;;;;12.35;64.68;101442.06;5023614;28;45179;-50
2022/01/02 02:18:38;;;;;;;;;43.75;36.00;;;;;12.37;64.52;101438.53;5041487;28;45455;-49
2022/01/02 02:21:03;;;;;;;;;48.00;40.25;;;;;12.35;64.45;101428.88;5023276;28;47799;-47
2022/01/02 02:23:28;;;;;;;;;60.50;47.25;;;;;12.32;64.42;101431.53;5041308;28;45324;-46
2022/01/02 02:25:54;;;;;;;;;64.50;50.25;;;;;12.33;64.60;101417.47;5041161;28;45162;-48
2022/01/02 02:28:19;;;;;;;;;50.25;41.00;;;;;12.33;64.68;101411.34;5023641;28;45730;-49
2022/01/02 02:30:47;;;;;;;;;47.25;38.75;;;;;12.33;64.74;101406.91;5046108;28;46307;-45
2022/01/02 02:33:15;;;;;;;;;33.00;28.50;;;;;12.31;64.75;101403.44;5061305;28;45317;-48
2022/01/02 02:35:42;;;;;;;;;26.50;22.00;;;;;12.31;64.69;101402.56;5059926;28;45437;-47
2022/01/02 02:38:10;;;;;;;;;14.50;14.50;;;;;12.30;64.52;101399.06;5048375;28;45455;-44
2022/01/02 02:40:36;;;;;;;;;16.25;15.25;;;;;12.29;64.39;101388.50;5040548;28;46387;-48
2022/01/02 02:43:13;;;;;;;;;17.75;17.75;;;;;12.32;64.35;101388.50;5040930;28;45347;-49
2022/01/02 02:51:16;;;;;;;;;18.00;17.00;;;;;12.30;64.65;101372.72;5040721;28;45240;-50
2022/01/02 02:53:44;;;;;;;;;18.75;16.00;;;;;12.30;64.53;101367.44;5040688;28;45407;-45
2022/01/02 02:58:42;;;;;;;;;8.25;7.75;;;;;12.28;64.45;101348.13;5032468;28;45474;-47
2022/01/02 03:01:15;;;;;;;;;17.50;16.50;;;;;12.26;64.78;101349.03;5045238;28;46151;-46
2022/01/02 03:03:41;;;;;;;;;11.50;10.50;;;;;12.29;64.72;101344.59;5040630;28;45465;-47
2022/01/02 03:06:06;;;;;;;;;15.75;14.75;;;;;12.29;64.63;101339.34;5040567;28;45352;-48
2022/01/02 03:08:34;;;;;;;;;17.25;16.75;;;;;12.30;64.38;101342.84;5040636;28;45483;-50
2022/01/02 03:10:59;;;;;;;;;15.00;12.50;;;;;12.33;64.30;101345.44;5040154;28;46853;-47
2022/01/02 03:13:25;;;;;;;;;16.50;10.00;;;;;12.26;64.51;101344.63;5006098;28;45567;-48
2022/01/02 03:15:50;;;;;;;;;16.75;16.75;;;;;12.32;64.40;101355.09;5040788;28;45313;-50
2022/01/02 03:18:16;;;;;;;;;17.00;15.50;;;;;12.35;64.37;101355.09;5040570;28;45311;-48
2022/01/02 03:20:41;;;;;;;;;16.75;14.50;;;;;12.34;64.40;101352.47;5040331;28;46020;-50
2022/01/02 03:23:07;;;;;;;;;13.25;13.00;;;;;12.34;64.46;101336.66;5040441;28;45415;-50
2022/01/02 03:25:32;;;;;;;;;16.25;14.25;;;;;12.35;64.48;101328.72;5040193;28;45277;-48
2022/01/02 03:27:57;;;;;;;;;16.00;15.50;;;;;12.35;64.55;101318.19;5040591;28;45166;-50
2022/01/02 03:30:23;;;;;;;;;30.50;28.00;;;;;12.37;64.38;101306.75;5042083;28;45303;-48
2022/01/02 03:32:48;;;;;;;;;18.75;16.00;;;;;12.33;64.47;101309.41;5042387;28;45336;-48
2022/01/02 03:35:14;;;;;;;;;18.25;16.50;;;;;12.34;64.29;101323.47;5042374;28;45257;-50
2022/01/02 03:37:39;;;;;;;;;17.00;14.25;;;;;12.38;64.54;101345.38;5051784;28;45240;-47
2022/01/02 03:40:07;;;;;;;;;13.50;13.50;;;;;12.39;64.29;101348.00;5039842;28;45369;-47
2022/01/02 03:42:34;;;;;;;;;18.00;16.75;;;;;12.39;64.49;101341.84;5022166;28;46021;-47
2022/01/02 03:44:59;;;;;;;;;12.50;11.25;;;;;12.38;64.43;101324.28;5022209;28;45282;-50
2022/01/02 03:47:25;;;;;;;;;11.00;11.00;;;;;12.39;64.50;101331.31;5039702;28;45459;-46
2022/01/02 03:49:50;;;;;;;;;12.00;11.75;;;;;12.39;64.27;101340.09;5039906;28;45311;-45
2022/01/02 03:52:16;;;;;;;;;16.75;16.00;;;;;12.41;64.51;101340.94;5040310;28;45301;-50
2022/01/02 03:54:41;;;;;;;;;14.50;14.50;;;;;12.43;64.35;101339.16;5039968;28;45535;-47
2022/01/02 03:57:07;;;;;;;;;17.00;14.00;;;;;12.44;64.14;101329.47;5040031;28;45349;-45
2022/01/02 03:59:32;;;;;;;;;19.75;13.75;;;;;12.45;64.51;101331.22;5039612;28;46195;-47
2022/01/02 04:01:58;;;;;;;;;16.75;15.00;;;;;12.44;64.54;101318.94;5040031;28;45258;-49
2022/01/02 04:04:23;;;;;;;;;15.25;15.25;;;;;12.44;64.55;101321.56;5040106;28;45222;-48
2022/01/02 04:06:48;;;;;;;;;13.75;12.75;;;;;12.43;64.43;101318.09;5039538;28;45226;-46
2022/01/02 04:09:14;;;;;;;;;16.25;14.50;;;;;12.44;64.44;101309.28;5039541;28;46259;-48
2022/01/02 04:11:39;;;;;;;;;15.00;14.50;;;;;12.44;64.19;101309.28;5039581;28;45396;-48
2022/01/02 04:14:05;;;;;;;;;16.25;15.75;;;;;12.43;64.44;101314.59;5039867;28;45269;-46
2022/01/02 04:16:30;;;;;;;;;16.75;14.75;;;;;12.43;64.08;101306.69;5039711;28;45179;-46
2022/01/02 04:18:56;;;;;;;;;16.50;14.00;;;;;12.43;64.08;101294.34;5021845;28;45299;-48
2022/01/02 04:21:21;;;;;;;;;15.50;13.25;;;;;12.44;64.49;101305.75;5039675;28;45328;-47
2022/01/02 04:23:46;;;;;;;;;16.00;12.50;;;;;12.47;64.40;101311.00;5039677;28;45332;-48
2022/01/02 04:26:12;;;;;;;;;15.25;14.00;;;;;12.45;64.07;101313.69;5039566;28;45445;-49
2022/01/02 04:28:37;;;;;;;;;15.00;14.00;;;;;12.47;64.32;101311.00;5039401;28;45446;-50
2022/01/02 04:31:02;;;;;;;;;14.00;13.00;;;;;12.49;64.10;101296.03;5046998;28;45332;-45
2022/01/02 04:33:28;;;;;;;;;12.75;12.75;;;;;12.48;64.39;101282.00;5059766;28;45237;-46
2022/01/02 04:35:53;;;;;;;;;12.00;10.50;;;;;12.46;64.44;101283.75;5059661;28;45553;-47
2022/01/02 04:38:18;;;;;;;;;11.75;11.25;;;;;12.49;64.19;101293.38;5045711;28;46193;-49
2022/01/02 04:40:44;;;;;;;;;13.25;12.25;;;;;12.51;64.21;101295.16;5021259;28;46013;-47
2022/01/02 04:43:09;;;;;;;;;13.00;13.00;;;;;12.52;64.14;101291.59;5021568;28;45396;-46
2022/01/02 04:45:35;;;;;;;;;12.75;12.50;;;;;12.52;64.21;101275.78;5039668;28;45574;-49
2022/01/02 04:48:00;;;;;;;;;13.75;12.00;;;;;12.51;64.09;101281.97;5039306;28;45377;-49
2022/01/02 04:50:25;;;;;;;;;18.00;16.00;;;;;12.48;64.32;101286.41;5039275;28;45303;-45
2022/01/02 04:52:51;;;;;;;;;17.00;14.75;;;;;12.46;64.28;101275.00;5039432;28;45163;-46
2022/01/02 04:55:17;;;;;;;;;22.75;18.00;;;;;12.46;64.42;101269.72;5021502;28;45448;-48
2022/01/02 04:57:42;;;;;;;;;19.25;19.25;;;;;12.46;64.51;101256.53;5017880;28;47196;-47
2022/01/02 05:00:09;;;;;;;;;24.50;23.75;;;;;12.46;64.31;101267.09;5041906;28;45238;-49
2022/01/02 05:02:34;;;;;;;;;17.25;17.25;;;;;12.47;64.04;101255.66;5038207;28;45277;-47
2022/01/02 05:04:59;;;;;;;;;21.50;19.00;;;;;12.45;64.42;101247.78;5041097;28;45372;-47
2022/01/02 05:07:25;;;;;;;;;19.00;15.25;;;;;12.46;64.25;101256.53;5024689;28;48044;-46
2022/01/02 05:09:50;;;;;;;;;20.50;18.25;;;;;12.45;64.10;101241.63;5024522;28;45737;-50
2022/01/02 05:12:16;;;;;;;;;17.75;16.50;;;;;12.46;64.06;101238.94;5042610;28;45399;-48
2022/01/02 05:14:41;;;;;;;;;16.50;15.50;;;;;12.46;64.41;101238.09;5042359;28;45586;-49
2022/01/02 05:17:06;;;;;;;;;15.75;14.75;;;;;12.45;64.16;101231.97;5042553;28;45511;-50
2022/01/02 05:19:32;;;;;;;;;16.00;14.25;;;;;12.43;64.24;101225.81;5042302;28;45380;-46
2022/01/02 05:21:58;;;;;;;;;12.75;12.25;;;;;12.47;64.06;101250.38;5042409;28;45299;-46
2022/01/02 05:24:23;;;;;;;;;15.75;15.00;;;;;12.51;64.31;101244.16;5042119;28;45265;-46
2022/01/02 05:26:49;;;;;;;;;14.25;13.75;;;;;12.51;63.93;101245.06;5042076;28;46364;-49
2022/01/02 05:29:15;;;;;;;;;14.00;12.50;;;;;12.52;64.24;101243.28;5042153;28;45329;-48
2022/01/02 05:31:40;;;;;;;;;12.00;11.25;;;;;12.46;64.12;101233.69;5055089;28;45336;-47
2022/01/02 05:34:06;;;;;;;;;11.00;11.00;;;;;12.43;64.28;101227.59;5062291;28;45336;-48
2022/01/02 05:36:31;;;;;;;;;16.00;13.50;;;;;12.45;63.95;101216.16;5062161;28;45951;-48
2022/01/02 05:38:56;;;;;;;;;9.50;9.25;;;;;12.46;63.89;101231.03;5042432;28;45185;-47
2022/01/02 05:41:22;;;;;;;;;10.00;10.00;;;;;12.47;64.03;101227.50;5042045;28;45206;-50
2022/01/02 05:43:47;;;;;;;;;13.00;11.00;;;;;12.49;63.74;101231.00;5042040;28;45163;-48
2022/01/02 05:46:13;;;;;;;;;13.25;12.75;;;;;12.47;64.06;101224.88;5042074;28;45241;-48
2022/01/02 05:48:38;;;;;;;;;12.00;11.75;;;;;12.48;63.95;101215.22;5041879;28;45246;-50
2022/01/02 05:51:04;;;;;;;;;7.00;7.00;;;;;12.50;63.76;101216.06;5042173;28;45923;-47
2022/01/02 05:53:30;;;;;;;;;6.75;6.75;;;;;12.49;63.86;101211.66;5041930;28;45238;-48
2022/01/02 05:55:56;;;;;;;;;13.00;12.00;;;;;12.48;64.05;101238.94;5041478;28;45313;-47
2022/01/02 05:58:21;;;;;;;;;10.00;9.00;;;;;12.51;63.96;101231.88;5041595;28;45344;-46
2022/01/02 06:00:47;;;;;;;;;11.00;10.00;;;;;12.55;63.68;101237.09;5042042;28;45318;-47
2022/01/02 06:03:12;;;;;;;;;12.00;9.50;;;;;12.52;63.66;101238.00;5041572;28;45482;-46
2022/01/02 06:05:37;;;;;;;;;10.50;10.25;;;;;12.56;63.72;101233.56;5041489;28;46760;-45
2022/01/02 06:08:03;;;;;;;;;9.50;9.00;;;;;12.53;63.85;101229.22;5041715;28;45311;-45
2022/01/02 06:10:28;;;;;;;;;10.50;9.25;;;;;12.52;63.69;101235.38;5041208;28;45269;-47
2022/01/02 06:12:53;;;;;;;;;14.75;10.00;;;;;12.54;63.94;101217.78;5041658;28;45746;-48
2022/01/02 06:15:19;;;;;;;;;11.25;10.25;;;;;12.58;63.78;101216.81;5041679;28;46189;-50
2022/01/02 06:17:44;;;;;;;;;23.75;17.00;;;;;12.60;63.70;101233.50;5023430;28;45377;-50
2022/01/02 06:20:10;;;;;;;;;11.00;9.50;;;;;12.58;63.75;101226.47;5041697;28;45362;-50
2022/01/02 06:22:35;;;;;;;;;11.50;11.50;;;;;12.59;63.81;101210.66;5041355;28;45326;-46
2022/01/02 06:25:01;;;;;;;;;10.75;10.75;;;;;12.60;63.69;101209.78;5041400;28;46033;-48
2022/01/02 06:27:26;;;;;;;;;12.25;10.25;;;;;12.63;64.09;101233.44;5041054;28;45218;-47
2022/01/02 06:29:52;;;;;;;;;8.50;8.50;;;;;12.65;63.71;101238.69;5041161;28;45313;-46
2022/01/02 06:32:17;;;;;;;;;10.25;8.50;;;;;12.63;63.67;101236.09;5059034;28;45292;-46
2022/01/02 06:34:44;;;;;;;;;15.00;11.25;;;;;12.65;63.63;101244.84;5032177;28;45266;-48
2022/01/02 06:37:09;;;;;;;;;13.75;12.25;;;;;12.66;63.75;101245.72;5054693;28;45365;-48
2022/01/02 06:39:35;;;;;;;;;10.00;10.00;;;;;12.64;63.54;101243.09;5041060;28;45325;-48
2022/01/02 06:42:00;;;;;;;;;10.67;10.67;;;;;12.63;63.95;101243.13;5040781;28;45515;-50
2022/01/02 06:44:26;;;;;;;;;11.25;11.25;;;;;12.66;63.78;101259.75;5041219;28;46319;-50
2022/01/02 06:46:52;;;;;;;;;13.00;10.25;;;;;12.67;63.75;101253.59;5040994;28;45274;-47
2022/01/02 06:49:17;;;;;;;;;12.75;12.00;;;;;12.64;63.54;101232.56;5041189;28;45328;-49
2022/01/02 06:51:42;;;;;;;;;12.00;10.25;;;;;12.64;63.74;101231.66;5040824;28;45297;-48
2022/01/02 06:54:08;;;;;;;;;10.75;10.00;;;;;12.65;63.72;101229.03;5040826;28;45811;-46
2022/01/02 06:56:33;;;;;;;;;12.25;11.25;;;;;12.67;63.68;101227.22;5040515;28;45317;-45
2022/01/02 06:58:58;;;;;;;;;12.50;9.25;;;;;12.68;63.73;101259.75;5041305;28;45310;-48
2022/01/02 07:01:23;;;;;;;;;9.25;8.75;;;;;12.70;63.74;101250.03;5040883;28;45558;-49
2022/01/02 07:03:49;;;;;;;;;12.00;11.25;;;;;12.70;63.54;101242.13;5040758;28;46284;-46
2022/01/02 07:06:14;;;;;;;;;8.00;8.00;;;;;12.70;63.44;101242.13;5040669;28;45458;-48
2022/01/02 07:08:39;;;;;;;;;10.75;10.75;;;;;12.71;63.65;101243.88;5040957;28;45511;-49
2022/01/02 07:11:07;;;;;;;;;11.25;11.25;;;;;12.73;63.84;101255.28;5040400;28;45374;-48
2022/01/02 07:13:32;;;;;;;;;15.00;11.50;;;;;12.72;63.45;101239.50;5040778;28;47056;-48
2022/01/02 07:15:58;;;;;;;;;11.25;10.75;;;;;12.73;63.48;101238.56;5040437;28;45231;-47
2022/01/02 07:18:23;;;;;;;;;9.75;8.00;;;;;12.74;63.83;101242.94;5040858;28;45316;-49
2022/01/02 07:20:48;;;;;;;;;12.00;10.00;;;;;12.75;63.78;101234.16;5040254;28;45210;-48
2022/01/02 07:23:14;;;;;;;;;17.50;15.50;;;;;12.74;63.73;101242.94;5039983;28;46261;-48
2022/01/02 07:25:39;;;;;;;;;14.00;12.00;;;;;12.75;63.71;101249.97;5040024;28;45242;-46
2022/01/02 07:28:04;;;;;;;;;11.00;11.00;;;;;12.77;63.67;101262.25;5040713;28;45223;-48
2022/01/02 07:30:30;;;;;;;;;10.25;10.25;;;;;12.75;63.62;101266.66;5043275;28;45285;-45
2022/01/02 07:33:01;;;;;;;;;12.00;12.00;;;;;12.76;63.59;101278.09;5060544;28;45617;-46
2022/01/02 07:35:28;;;;;;;;;13.25;10.00;;;;;12.76;63.77;101293.91;5060356;28;45244;-49
2022/01/02 07:37:53;;;;;;;;;12.25;9.00;;;;;12.76;63.57;101286.00;5049586;28;45280;-49
2022/01/02 07:40:18;;;;;;;;;10.25;10.25;;;;;12.75;63.42;101282.47;5039731;28;45375;-47
2022/01/02 07:42:44;;;;;;;;;11.75;9.25;;;;;12.76;63.65;101293.91;5040162;28;45340;-47
2022/01/02 07:45:09;;;;;;;;;11.50;11.50;;;;;12.77;63.79;101287.75;5040252;28;45209;-50
2022/01/02 07:47:38;;;;;;;;;13.75;12.00;;;;;12.76;64.04;101293.91;5040472;28;45328;-46
2022/01/02 07:50:03;;;;;;;;;11.75;11.75;;;;;12.75;63.40;101306.22;5039960;28;45262;-48
2022/01/02 07:52:28;;;;;;;;;15.50;13.25;;;;;12.77;63.65;101293.88;5039939;28;46168;-45
2022/01/02 07:54:54;;;;;;;;;13.25;11.00;;;;;12.78;63.51;101305.28;5039865;28;45369;-49
2022/01/02 07:57:20;;;;;;;;;12.75;10.75;;;;;12.80;63.78;101307.06;5022001;28;45437;-48
2022/01/02 07:59:45;;;;;;;;;12.25;11.00;;;;;12.78;63.67;101319.38;5021987;28;45390;-49
2022/01/02 08:02:10;;;;;;;;;12.75;9.75;;;;;12.79;63.63;101328.16;5039945;28;45352;-46
2022/01/02 08:04:36;;;;;;;;;14.75;11.50;;;;;12.79;63.91;101325.50;5039876;28;45343;-46
2022/01/02 08:07:01;;;;;;;;;13.00;11.75;;;;;12.78;63.95;101327.28;5039947;28;45412;-46
2022/01/02 08:09:26;;;;;;;;;13.50;12.50;;;;;12.78;63.87;101331.66;5039592;28;45222;-46
2022/01/02 08:11:52;;;;;;;;;14.00;12.00;;;;;12.80;63.93;101341.34;5039691;28;45309;-49
2022/01/02 08:14:17;;;;;;;;;12.75;11.50;;;;;12.78;63.74;101342.22;5039801;28;45278;-48
2022/01/02 08:16:44;;;;;;;;;10.25;10.25;;;;;12.80;64.02;101353.63;5040007;28;45432;-46
2022/01/02 08:19:09;;;;;;;;;15.25;12.25;;;;;12.81;63.78;101368.56;5039632;28;45337;-45
2022/01/02 08:21:35;;;;;;;;;10.50;8.25;;;;;12.81;64.15;101365.94;5021589;28;47360;-47
2022/01/02 08:24:01;;;;;;;;;10.25;10.00;;;;;12.81;63.90;101369.44;5039531;28;45282;-45
2022/01/02 08:26:27;;;;;;;;;11.25;9.00;;;;;12.80;63.89;101356.28;5039576;28;45392;-49
2022/01/02 08:28:52;;;;;;;;;10.50;10.50;;;;;12.79;63.81;101362.44;5039543;28;45479;-50
2022/01/02 08:31:18;;;;;;;;;11.25;11.25;;;;;12.79;64.25;101363.31;5049064;28;45371;-48
2022/01/02 08:33:43;;;;;;;;;11.00;10.00;;;;;12.78;64.25;101361.56;5061712;28;45320;-45
2022/01/02 08:36:09;;;;;;;;;15.25;12.50;;;;;12.77;64.22;101366.88;5063402;28;45340;-46
2022/01/02 08:38:35;;;;;;;;;15.50;12.50;;;;;12.78;64.21;101361.56;5046516;28;45393;-46
2022/01/02 08:41:00;;;;;;;;;11.75;11.75;;;;;12.78;64.10;101363.31;5042584;28;46042;-44
2022/01/02 08:43:25;;;;;;;;;13.00;13.00;;;;;12.77;64.06;101351.91;5042764;28;45336;-44
2022/01/02 08:45:51;;;;;;;;;14.75;14.00;;;;;12.77;64.12;101348.41;5043374;28;45322;-46
2022/01/02 08:48:16;;;;;;;;;13.50;13.50;;;;;12.79;64.30;101354.53;5042866;28;45411;-51
2022/01/02 08:50:42;;;;;;;;;17.50;14.25;;;;;12.81;64.12;101350.09;5042835;28;46137;-49
2022/01/02 08:53:07;;;;;;;;;12.75;11.75;;;;;12.79;64.19;101354.53;5042747;28;45349;-45
2022/01/02 08:55:34;;;;;;;;;12.00;12.00;;;;;12.82;64.11;101352.72;5042755;28;45220;-45
2022/01/02 08:58:00;;;;;;;;;15.75;13.75;;;;;12.81;64.14;101358.88;5051781;28;45530;-49
2022/01/02 09:00:25;;;;;;;;;17.25;15.75;;;;;12.83;64.38;101369.44;5024665;28;46953;-49
2022/01/02 09:02:50;;;;;;;;;16.50;14.00;;;;;12.82;64.71;101372.97;5042464;28;45143;-50
2022/01/02 09:05:16;;;;;;;;;13.50;12.00;;;;;12.78;64.76;101371.22;5042697;28;45466;-47
2022/01/02 09:07:41;;;;;;;;;12.50;12.50;;;;;12.77;64.92;101373.00;5024594;28;45293;-49
2022/01/02 09:10:07;;;;;;;;;16.75;15.75;;;;;12.76;64.71;101378.31;5042366;28;45388;-46
2022/01/02 09:12:33;;;;;;;;;14.50;13.50;;;;;12.77;64.92;101378.28;5042386;28;45349;-45
2022/01/02 09:14:58;;;;;;;;;11.50;11.50;;;;;12.79;64.95;101384.41;5017213;28;45267;-47
2022/01/02 09:17:24;;;;;;;;;13.00;12.50;;;;;12.83;64.74;101395.81;5040809;28;45512;-50
2022/01/02 09:19:51;;;;;;;;;15.00;13.00;;;;;12.85;64.73;101399.28;5024341;28;45848;-49
2022/01/02 09:22:17;;;;;;;;;11.75;11.75;;;;;12.90;64.88;101404.50;5024285;28;45419;-49
2022/01/02 09:24:43;;;;;;;;;8.50;7.00;;;;;12.91;65.10;101396.56;5024412;28;45463;-48
2022/01/02 09:27:08;;;;;;;;;12.50;12.50;;;;;12.93;65.04;101405.34;5041970;28;45238;-46
2022/01/02 09:29:34;;;;;;;;;15.25;13.00;;;;;12.93;65.27;101397.44;5024021;28;45501;-46
2022/01/02 09:31:59;;;;;;;;;14.25;14.25;;;;;12.99;65.09;101407.00;5037585;28;45206;-45
2022/01/02 09:34:24;;;;;;;;;14.75;13.00;;;;;13.05;65.26;101406.06;5024348;28;45435;-49
2022/01/02 09:36:50;;;;;;;;;15.25;13.75;;;;;13.07;64.78;101414.81;5051034;28;45389;-45
2022/01/02 09:39:15;;;;;;;;;19.00;15.50;;;;;13.08;65.19;101406.00;5023815;28;47119;-46
2022/01/02 09:41:41;;;;;;;;;16.50;15.25;;;;;13.11;65.49;101420.03;5041604;28;45390;-44
2022/01/02 09:44:07;;;;;;;;;18.75;15.25;;;;;13.13;65.13;101414.72;5023664;28;45473;-49
2022/01/02 09:46:33;;;;;;;;;17.50;13.50;;;;;13.14;65.53;101414.72;5041637;28;45308;-47
2022/01/02 09:49:01;;;;;;;;;15.00;13.50;;;;;13.20;65.22;101413.75;5023768;28;46534;-46
2022/01/02 09:51:27;;;;;;;;;16.25;15.25;;;;;13.23;65.26;101405.81;5023726;28;45297;-51
2022/01/02 09:53:56;;;;;;;;;19.25;17.00;;;;;13.26;65.52;101408.38;5031910;28;45202;-46
2022/01/02 09:56:23;;;;;;;;;16.25;13.25;;;;;13.31;65.71;101406.53;5046354;28;45428;-48
2022/01/02 09:58:51;;;;;;;;;14.75;14.50;;;;;13.32;65.62;101400.38;5023550;28;46275;-48
2022/01/02 10:01:22;;;;;;;;;16.00;13.00;;;;;13.25;65.26;101389.94;5041511;28;45368;-47
2022/01/02 10:03:50;;;;;;;;;13.75;12.50;;;;;13.45;65.69;101410.78;5041585;28;45418;-49
2022/01/02 10:06:17;;;;;;;;;14.75;13.75;;;;;13.52;65.58;101417.72;5006790;28;45511;-48
2022/01/02 10:08:43;;;;;;;;;17.75;13.50;;;;;13.51;65.35;101407.16;5041267;28;45369;-45
2022/01/02 10:11:24;;;;;;;;;15.25;14.00;;;;;13.64;65.51;101422.78;5040947;28;45197;-47
2022/01/02 10:13:56;;;;;;;;;14.25;12.75;;;;;13.73;65.39;101420.91;5023617;28;45347;-47
2022/01/02 10:16:33;;;;;;;;;13.50;13.50;;;;;13.81;65.34;101417.25;5041411;28;45502;-47
2022/01/02 10:19:20;;;;;;;;;16.75;16.75;;;;;13.93;65.90;101428.50;5041174;28;46281;-49
2022/01/02 10:21:58;;;;;;;;;18.25;17.25;;;;;13.98;65.74;101411.66;5041216;28;45265;-47
2022/01/02 10:24:27;;;;;;;;;13.75;12.75;;;;;14.11;65.90;101407.03;5041096;28;45416;-47
2022/01/02 10:27:18;;;;;;;;;14.75;13.50;;;;;14.26;65.66;101415.56;5041260;28;45283;-46
2022/01/02 10:29:50;;;;;;;;;14.75;13.75;;;;;14.36;65.82;101422.41;5047448;28;45408;-47
2022/01/02 10:32:26;;;;;;;;;15.00;13.00;;;;;14.49;65.82;101428.38;5058783;28;45426;-44
2022/01/02 10:35:05;;;;;;;;;11.50;10.75;;;;;14.61;65.53;101428.09;5061490;28;45158;-44
2022/01/02 10:37:30;;;;;;;;;11.75;9.50;;;;;14.73;65.78;101431.41;5053601;28;45238;-45
2022/01/02 10:39:56;;;;;;;;;13.75;13.00;;;;;14.82;65.69;101420.66;5040687;28;46017;-50
2022/01/02 10:42:21;;;;;;;;;13.25;11.75;;;;;14.90;65.94;101421.34;5040997;28;45205;-48
2022/01/02 10:44:47;;;;;;;;;10.50;7.75;;;;;14.99;66.03;101417.66;5041084;28;45474;-48
2022/01/02 10:47:18;;;;;;;;;11.00;11.00;;;;;15.03;66.16;101424.63;5023109;28;45352;-48
2022/01/02 10:50:02;;;;;;;;;16.00;12.50;;;;;15.09;65.96;101418.31;5040785;28;45998;-50
2022/01/02 10:52:42;;;;;;;;;9.00;8.75;;;;;15.12;65.89;101428.84;5022913;28;45219;-49
2022/01/02 10:55:14;;;;;;;;;12.75;10.75;;;;;15.11;66.10;101417.38;5040490;28;45373;-45
2022/01/02 10:57:42;;;;;;;;;12.50;9.00;;;;;15.10;66.02;101420.06;5045612;28;45529;-46
2022/01/02 11:00:08;;;;;;;;;12.00;7.50;;;;;15.12;65.80;101410.31;5040709;28;46232;-49
2022/01/02 11:02:34;;;;;;;;;13.00;11.25;;;;;15.14;65.42;101419.09;5040516;28;45347;-49
2022/01/02 11:05:08;;;;;;;;;14.00;13.00;;;;;15.11;65.62;101420.03;5040776;28;45298;-50
2022/01/02 11:07:51;;;;;;;;;9.75;8.50;;;;;15.08;65.67;101421.88;5022964;28;45495;-45
2022/01/02 11:10:19;;;;;;;;;10.25;8.75;;;;;15.09;65.19;101428.91;5040203;28;46223;-46
2022/01/02 11:12:46;;;;;;;;;11.25;9.00;;;;;15.07;65.50;101426.28;5040414;28;45329;-46
2022/01/02 11:15:15;;;;;;;;;9.75;8.25;;;;;15.02;65.57;101425.53;5040814;28;45293;-49
2022/01/02 11:17:40;;;;;;;;;9.50;9.00;;;;;15.03;65.48;101415.81;5040293;28;45432;-46
2022/01/02 11:20:09;;;;;;;;;10.25;9.75;;;;;15.03;65.36;101424.63;5040386;28;46217;-48